Archival Weather

Chicago O'Hare International

Chicago, Illinois (KORD)

Report from: Sunday, December 25, 2022 4:51 PM CST
Current time: Saturday, June 22, 2024 4:56 AM CDT

Current weather – Weather history – Daily summaries
Weather forecast

Temperature-10.6°C (12.9°F)
Wind chill-17.9°C (-0.2°F)
Dew point-15.6°C (3.9°F)
Winds 9 kts (4.6 m/s, 10.4 mph) West-Southwest (250°)
Wind gusts 16 kts (8.2 m/s, 18.4 mph)
Visibility10 mi. (16.1 km)
Clouds Ceiling: Broken clouds 20,000 ft. (6,096 m)
Altimeter30.04 in.Hg (1017 mB)
Relative humidity67 %
Density altitude-3,360 ft. (-1,024 m)
Sea-level pressure101.9 kPa (1019 mB, 30.08 in.Hg)
Remarks System requires maintenance
Automated weather observing station with precipitation discriminator
Flight conditions Visual Meteorological Conditions
Raw dataKORD 252251Z 25009G16KT 10SM BKN200 M11/M16 A3004 RMK AO2 SLP187 T11061156 $
An error has occurred. This application may no longer respond until reloaded. Reload 🗙